Time;durP1;ratioP1;P1;durP2;ratioP2;P2;SDS_P1;SDS_P2;PMS_P1;PMS_P2;Temp;Humidity;BMP_temperature;BMP_pressure;BME280_temperature;BME280_humidity;BME280_pressure;Samples;Min_cycle;Max_cycle;Signal;HPM_P1;HPM_P2
2023/09/17 00:01:11;;;;;;;6.88;3.70;;;21.00;92.80;;;;;;6307050;22;20134;-73
2023/09/17 00:03:37;;;;;;;5.65;3.85;;;21.00;92.50;;;;;;6306877;22;20011;-75
2023/09/17 00:06:03;;;;;;;6.53;4.28;;;20.90;92.40;;;;;;6306350;22;20003;-74
2023/09/17 00:08:29;;;;;;;4.95;3.72;;;20.90;92.40;;;;;;6279287;22;20003;-74
2023/09/17 00:10:55;;;;;;;4.28;3.53;;;20.90;92.40;;;;;;6306578;22;20022;-75
2023/09/17 00:13:21;;;;;;;4.55;3.63;;;20.90;92.30;;;;;;6306407;22;19995;-75
2023/09/17 00:15:46;;;;;;;5.78;3.65;;;20.90;92.30;;;;;;6306830;22;20011;-74
2023/09/17 00:18:12;;;;;;;4.50;3.60;;;20.90;92.30;;;;;;6306778;22;20007;-75
2023/09/17 00:20:38;;;;;;;6.57;4.05;;;20.90;92.20;;;;;;6306212;22;20049;-74
2023/09/17 00:23:04;;;;;;;10.52;4.38;;;20.90;92.20;;;;;;6306496;22;20361;-74
2023/09/17 00:25:30;;;;;;;7.63;4.20;;;20.90;92.20;;;;;;6306631;22;20057;-74
2023/09/17 00:27:56;;;;;;;7.43;4.40;;;20.80;92.30;;;;;;6306384;22;20424;-75
2023/09/17 00:30:21;;;;;;;5.70;4.18;;;20.80;92.40;;;;;;6306212;22;20500;-75
2023/09/17 00:32:47;;;;;;;4.43;4.03;;;20.80;92.40;;;;;;6306677;22;20006;-75
2023/09/17 00:35:13;;;;;;;7.15;4.20;;;20.80;92.40;;;;;;6306569;22;20003;-73
2023/09/17 00:37:40;;;;;;;6.68;4.15;;;20.70;92.50;;;;;;6306693;22;20015;-74
2023/09/17 00:40:07;;;;;;;6.63;3.90;;;20.70;92.60;;;;;;6306260;22;20045;-74
2023/09/17 00:42:33;;;;;;;4.40;4.00;;;20.70;92.60;;;;;;6306621;22;20003;-75
2023/09/17 00:44:59;;;;;;;5.65;4.20;;;20.70;92.60;;;;;;6306450;22;19995;-74
2023/09/17 00:47:24;;;;;;;7.03;4.32;;;20.60;92.60;;;;;;6306216;22;20000;-74
2023/09/17 00:49:50;;;;;;;8.73;4.20;;;20.60;92.60;;;;;;6306737;22;20020;-74
2023/09/17 00:52:20;;;;;;;5.57;4.10;;;20.60;92.70;;;;;;6306623;22;20004;-73
2023/09/17 00:54:49;;;;;;;4.55;3.63;;;20.60;92.70;;;;;;6306899;22;20320;-73
2023/09/17 00:57:16;;;;;;;7.97;4.30;;;20.60;92.60;;;;;;6306374;22;20018;-74
2023/09/17 00:59:45;;;;;;;7.57;4.22;;;20.60;92.60;;;;;;6302620;22;20007;-75
2023/09/17 01:02:12;;;;;;;5.32;3.72;;;20.60;92.60;;;;;;6303063;22;20053;-74
2023/09/17 01:04:40;;;;;;;7.65;3.97;;;20.60;92.70;;;;;;6304748;22;19999;-74
2023/09/17 01:07:07;;;;;;;5.68;3.97;;;20.60;92.70;;;;;;6306209;22;20007;-75
2023/09/17 01:09:34;;;;;;;5.03;4.05;;;20.50;92.70;;;;;;6306878;22;20359;-74
2023/09/17 01:12:00;;;;;;;5.30;3.78;;;20.50;92.70;;;;;;6306302;22;20345;-74
2023/09/17 01:14:26;;;;;;;6.70;3.78;;;20.50;92.70;;;;;;6278808;22;20424;-74
2023/09/17 01:16:54;;;;;;;5.78;3.92;;;20.50;92.80;;;;;;6306109;22;20050;-73
2023/09/17 01:19:29;;;;;;;8.55;4.43;;;20.50;92.80;;;;;;6306319;22;20073;-74
2023/09/17 01:22:16;;;;;;;9.45;4.28;;;20.50;92.80;;;;;;6307585;22;20003;-74
2023/09/17 01:25:14;;;;;;;5.85;4.10;;;20.50;92.80;;;;;;6308103;22;20045;-74
2023/09/17 01:27:41;;;;;;;5.88;4.20;;;20.40;92.70;;;;;;6280511;22;20007;-73
2023/09/17 01:30:27;;;;;;;6.43;4.03;;;20.40;92.70;;;;;;6308071;22;20498;-75
2023/09/17 01:32:53;;;;;;;5.40;4.60;;;20.40;92.80;;;;;;6308502;22;19999;-74
2023/09/17 01:35:20;;;;;;;6.85;4.53;;;20.40;92.80;;;;;;6307984;22;20003;-74
2023/09/17 01:37:52;;;;;;;6.40;4.53;;;20.30;92.80;;;;;;6308165;22;20556;-74
2023/09/17 01:40:18;;;;;;;7.03;3.83;;;20.30;92.90;;;;;;6307844;22;19995;-74
2023/09/17 01:42:46;;;;;;;6.40;3.83;;;20.30;93.00;;;;;;6307800;22;20011;-75
2023/09/17 01:45:16;;;;;;;11.48;4.53;;;20.30;93.00;;;;;;6307878;22;20375;-74
2023/09/17 01:47:44;;;;;;;5.43;4.05;;;20.30;93.00;;;;;;6308014;22;20025;-74
2023/09/17 01:50:11;;;;;;;7.10;4.18;;;20.30;93.10;;;;;;6308018;22;19996;-74
2023/09/17 01:52:39;;;;;;;13.50;4.70;;;20.20;93.10;;;;;;6307475;22;20003;-74
2023/09/17 01:55:08;;;;;;;7.53;3.85;;;20.20;93.10;;;;;;6307940;22;20003;-74
2023/09/17 01:57:34;;;;;;;7.30;4.10;;;20.20;93.10;;;;;;6307703;22;20011;-74
2023/09/17 02:00:00;;;;;;;7.32;4.30;;;20.20;93.10;;;;;;6308066;22;20109;-74
2023/09/17 02:02:26;;;;;;;5.50;4.38;;;20.30;93.20;;;;;;6307634;22;20003;-75
2023/09/17 02:04:52;;;;;;;8.38;4.38;;;20.30;93.20;;;;;;6308473;22;20334;-74
2023/09/17 02:07:18;;;;;;;7.22;4.03;;;20.20;93.20;;;;;;6307873;22;19999;-74
2023/09/17 02:09:44;;;;;;;6.03;4.45;;;20.20;93.10;;;;;;6279999;22;20003;-74
2023/09/17 02:12:09;;;;;;;7.85;4.47;;;20.10;93.10;;;;;;6307602;22;20011;-74
2023/09/17 02:14:35;;;;;;;7.00;4.25;;;20.10;93.20;;;;;;6307552;22;19995;-74
2023/09/17 02:17:03;;;;;;;6.28;4.05;;;20.10;93.30;;;;;;6307368;22;20057;-74
2023/09/17 02:19:28;;;;;;;6.45;4.45;;;20.10;93.30;;;;;;6307136;22;20002;-75
2023/09/17 02:21:54;;;;;;;6.80;4.18;;;20.10;93.30;;;;;;6307065;22;20302;-74
2023/09/17 02:24:20;;;;;;;8.30;4.35;;;20.10;93.30;;;;;;6307243;22;20077;-74
2023/09/17 02:26:46;;;;;;;6.90;3.95;;;20.10;93.30;;;;;;6307220;22;20077;-75
2023/09/17 02:29:13;;;;;;;8.73;4.07;;;20.10;93.40;;;;;;6307655;22;20026;-74
2023/09/17 02:31:38;;;;;;;6.13;3.88;;;20.20;93.50;;;;;;6307535;22;20002;-75
2023/09/17 02:34:04;;;;;;;8.55;3.72;;;20.20;93.40;;;;;;6307262;22;20004;-74
2023/09/17 02:36:30;;;;;;;6.35;3.33;;;20.10;93.40;;;;;;6307187;22;20049;-74
2023/09/17 02:38:56;;;;;;;5.95;3.55;;;20.10;93.40;;;;;;6307701;22;19995;-75
2023/09/17 02:41:22;;;;;;;9.25;4.05;;;20.10;93.40;;;;;;6307544;22;20010;-75
2023/09/17 02:43:48;;;;;;;10.18;3.80;;;20.10;93.30;;;;;;6307657;22;19999;-74
2023/09/17 02:46:14;;;;;;;8.85;4.13;;;20.10;93.30;;;;;;6307304;22;20420;-74
2023/09/17 02:48:39;;;;;;;7.65;3.80;;;20.00;93.20;;;;;;6307599;22;20003;-74
2023/09/17 02:51:05;;;;;;;4.90;4.28;;;20.00;93.20;;;;;;6307939;22;20405;-74
2023/09/17 02:53:31;;;;;;;6.57;4.00;;;20.00;93.30;;;;;;6307150;22;20019;-74
2023/09/17 02:55:57;;;;;;;5.35;3.88;;;20.00;93.30;;;;;;6306940;22;20011;-74
2023/09/17 02:58:23;;;;;;;6.22;4.22;;;20.00;93.60;;;;;;6307280;22;20002;-74
2023/09/17 03:00:49;;;;;;;4.75;4.05;;;20.00;93.30;;;;;;6307211;22;20325;-74
2023/09/17 03:03:15;;;;;;;5.10;4.03;;;19.90;93.40;;;;;;6307264;22;19999;-74
2023/09/17 03:05:46;;;;;;;4.72;4.00;;;19.90;93.40;;;;;;6307227;22;20018;-74
2023/09/17 03:08:12;;;;;;;9.70;4.40;;;19.90;93.40;;;;;;6307129;22;19999;-74
2023/09/17 03:10:41;;;;;;;4.63;4.13;;;19.90;93.40;;;;;;6279582;22;20384;-74
2023/09/17 03:13:12;;;;;;;6.90;4.28;;;19.80;93.40;;;;;;6306744;22;19999;-74
2023/09/17 03:15:38;;;;;;;5.03;3.75;;;19.90;93.40;;;;;;6306678;22;20082;-74
2023/09/17 03:18:04;;;;;;;5.97;4.60;;;19.80;93.40;;;;;;6306850;22;20400;-74
2023/09/17 03:20:33;;;;;;;7.00;4.40;;;19.80;93.40;;;;;;6306665;22;20000;-74
2023/09/17 03:23:02;;;;;;;8.13;4.30;;;19.80;93.40;;;;;;6306937;22;20003;-73
2023/09/17 03:25:31;;;;;;;10.18;4.28;;;19.80;93.40;;;;;;6306781;22;19996;-74
2023/09/17 03:27:57;;;;;;;7.88;4.05;;;19.80;93.50;;;;;;6306705;22;20065;-74
2023/09/17 03:30:24;;;;;;;7.65;4.53;;;19.80;93.50;;;;;;6306412;22;20049;-74
2023/09/17 03:32:50;;;;;;;5.70;4.30;;;19.70;93.60;;;;;;6306950;22;20108;-74
2023/09/17 03:35:16;;;;;;;5.22;4.68;;;19.70;93.60;;;;;;6307073;22;20384;-74
2023/09/17 03:37:43;;;;;;;5.35;4.13;;;19.70;93.70;;;;;;6306980;22;20341;-75
2023/09/17 03:40:11;;;;;;;5.18;4.32;;;19.70;93.70;;;;;;6306705;22;19995;-75
2023/09/17 03:42:40;;;;;;;8.52;4.80;;;19.70;93.70;;;;;;6306237;22;20064;-74
2023/09/17 03:45:09;;;;;;;4.70;4.30;;;19.70;93.80;;;;;;6306843;22;19999;-75
2023/09/17 03:47:42;;;;;;;4.15;3.72;;;19.70;93.80;;;;;;6306764;22;20373;-74
2023/09/17 03:50:08;;;;;;;4.90;3.70;;;19.80;93.90;;;;;;6306835;22;20032;-74
2023/09/17 03:52:36;;;;;;;8.45;4.10;;;19.70;93.80;;;;;;6306764;22;19999;-74
2023/09/17 03:55:07;;;;;;;11.90;4.65;;;19.70;93.90;;;;;;6306759;22;20003;-74
2023/09/17 03:57:34;;;;;;;7.05;4.50;;;19.70;94.00;;;;;;6306714;22;20018;-74
2023/09/17 04:00:07;;;;;;;11.05;4.40;;;19.70;94.00;;;;;;6306666;22;20329;-75
2023/09/17 04:02:35;;;;;;;7.22;4.20;;;19.70;94.00;;;;;;6306547;22;20426;-74
2023/09/17 04:05:08;;;;;;;5.88;4.22;;;19.70;94.10;;;;;;6306519;22;20433;-74
2023/09/17 04:07:34;;;;;;;8.60;4.70;;;19.80;94.10;;;;;;6306838;22;20007;-75
2023/09/17 04:10:02;;;;;;;5.75;4.47;;;19.70;94.10;;;;;;6279279;22;20082;-74
2023/09/17 04:12:28;;;;;;;5.55;4.55;;;19.70;94.10;;;;;;6278980;22;20433;-75
2023/09/17 04:14:54;;;;;;;6.93;4.70;;;19.80;94.20;;;;;;6306846;22;20439;-74
2023/09/17 04:17:20;;;;;;;5.25;4.60;;;19.70;94.20;;;;;;6306674;22;20018;-74
2023/09/17 04:19:46;;;;;;;8.02;4.57;;;19.70;94.20;;;;;;6306950;22;20422;-74
2023/09/17 04:22:11;;;;;;;6.43;4.90;;;19.70;94.20;;;;;;6306952;22;20003;-74
2023/09/17 04:24:40;;;;;;;8.13;4.38;;;19.70;94.10;;;;;;6306803;22;20030;-74
2023/09/17 04:27:06;;;;;;;7.40;4.57;;;19.70;94.10;;;;;;6306853;22;20395;-74
2023/09/17 04:29:32;;;;;;;12.27;5.30;;;19.70;94.10;;;;;;6279049;22;20140;-74
2023/09/17 04:31:57;;;;;;;5.47;4.57;;;19.70;94.00;;;;;;6306331;22;20003;-74
2023/09/17 04:34:23;;;;;;;9.35;4.75;;;19.70;93.90;;;;;;6306340;22;20429;-74
2023/09/17 04:36:50;;;;;;;13.10;4.50;;;19.60;93.70;;;;;;6306230;22;20376;-74
2023/09/17 04:39:16;;;;;;;6.20;4.40;;;19.60;93.70;;;;;;6306577;22;20074;-74
2023/09/17 04:41:42;;;;;;;7.32;4.25;;;19.60;93.70;;;;;;6306408;22;20031;-74
2023/09/17 04:44:10;;;;;;;9.38;4.30;;;19.60;93.70;;;;;;6306474;22;20002;-74
2023/09/17 04:46:45;;;;;;;10.07;5.57;;;19.60;93.80;;;;;;6306673;22;20041;-74
2023/09/17 04:49:11;;;;;;;8.93;4.25;;;19.50;93.80;;;;;;6306530;22;20053;-74
2023/09/17 04:51:37;;;;;;;5.25;4.47;;;19.50;93.80;;;;;;6306487;22;20003;-73
2023/09/17 04:54:04;;;;;;;4.70;4.07;;;19.50;93.80;;;;;;6306483;22;20002;-74
2023/09/17 04:56:30;;;;;;;5.30;4.13;;;19.50;93.90;;;;;;6308344;22;20022;-74
2023/09/17 04:58:59;;;;;;;6.43;4.63;;;19.50;94.20;;;;;;6308474;22;20010;-74
2023/09/17 05:01:26;;;;;;;7.03;4.53;;;19.50;94.00;;;;;;6308331;22;20007;-74
2023/09/17 05:03:52;;;;;;;6.88;4.40;;;19.50;94.10;;;;;;6308781;22;20370;-74
2023/09/17 05:06:18;;;;;;;9.38;4.47;;;19.50;94.20;;;;;;6307947;22;20147;-75
2023/09/17 05:08:44;;;;;;;9.48;5.15;;;19.50;94.20;;;;;;6308289;22;20107;-75
2023/09/17 05:11:10;;;;;;;6.18;4.72;;;19.40;94.30;;;;;;6307957;22;20011;-75
2023/09/17 05:13:36;;;;;;;6.43;4.50;;;19.50;94.40;;;;;;6308438;22;19999;-75
2023/09/17 05:16:03;;;;;;;6.97;4.57;;;19.50;94.40;;;;;;6308060;22;20345;-75
2023/09/17 05:18:28;;;;;;;6.03;4.75;;;19.50;94.50;;;;;;6308225;22;20049;-75
2023/09/17 05:20:54;;;;;;;8.52;4.78;;;19.50;94.40;;;;;;6308205;22;20421;-75
2023/09/17 05:23:24;;;;;;;5.13;4.63;;;19.50;94.40;;;;;;6280692;22;20377;-75
2023/09/17 05:25:50;;;;;;;8.80;5.03;;;19.50;94.50;;;;;;6308257;22;20329;-75
2023/09/17 05:28:16;;;;;;;4.97;4.35;;;19.50;94.60;;;;;;6308165;22;20003;-75
2023/09/17 05:30:42;;;;;;;7.28;4.88;;;19.50;94.60;;;;;;6308320;22;20011;-75
2023/09/17 05:33:08;;;;;;;5.70;4.63;;;19.50;94.70;;;;;;6307946;22;20507;-76
2023/09/17 05:35:37;;;;;;;8.00;4.70;;;19.50;94.70;;;;;;6308070;22;20007;-75
2023/09/17 05:38:03;;;;;;;6.38;4.88;;;19.60;94.70;;;;;;6309147;22;20039;-74
2023/09/17 05:40:29;;;;;;;7.35;4.50;;;19.60;94.80;;;;;;6305460;22;20376;-74
2023/09/17 05:42:57;;;;;;;5.97;5.32;;;19.60;94.90;;;;;;6304907;22;20010;-77
2023/09/17 05:45:23;;;;;;;6.75;4.95;;;19.60;94.90;;;;;;6304156;22;20341;-75
2023/09/17 05:47:49;;;;;;;5.47;4.53;;;19.60;94.80;;;;;;6278766;22;20502;-75
2023/09/17 05:50:15;;;;;;;6.63;4.07;;;19.60;94.70;;;;;;6279156;22;20003;-75
2023/09/17 05:52:41;;;;;;;5.45;4.65;;;19.60;94.70;;;;;;6307991;22;20070;-75
2023/09/17 05:55:06;;;;;;;4.78;4.38;;;19.60;94.70;;;;;;6308393;22;20049;-75
2023/09/17 05:57:33;;;;;;;6.68;4.88;;;19.60;94.70;;;;;;6280748;22;20020;-75
2023/09/17 05:59:59;;;;;;;5.95;5.00;;;19.70;94.80;;;;;;6307775;22;20003;-75
2023/09/17 06:02:25;;;;;;;9.90;5.82;;;19.70;94.90;;;;;;6307557;22;20369;-75
2023/09/17 06:04:53;;;;;;;8.68;4.75;;;19.80;95.00;;;;;;6307915;22;20059;-75
2023/09/17 06:07:22;;;;;;;7.03;5.55;;;19.70;95.10;;;;;;6307993;22;20299;-75
2023/09/17 06:09:47;;;;;;;6.18;5.40;;;19.80;95.10;;;;;;6308241;22;20117;-75
2023/09/17 06:12:15;;;;;;;8.05;5.75;;;19.80;95.20;;;;;;6307724;22;20046;-75
2023/09/17 06:14:41;;;;;;;6.05;4.53;;;19.90;95.40;;;;;;6308058;22;20027;-75
2023/09/17 06:17:07;;;;;;;5.00;4.50;;;19.90;95.30;;;;;;6308068;22;20007;-75
2023/09/17 06:19:33;;;;;;;5.60;3.92;;;20.00;95.10;;;;;;6308221;22;20003;-75
2023/09/17 06:22:02;;;;;;;6.85;4.85;;;20.00;95.10;;;;;;6307761;22;20078;-75
2023/09/17 06:24:27;;;;;;;6.25;5.30;;;20.00;95.10;;;;;;6307353;22;19995;-75
2023/09/17 06:26:53;;;;;;;6.43;5.20;;;20.00;95.20;;;;;;6307606;22;19999;-76
2023/09/17 06:29:19;;;;;;;6.60;5.10;;;20.10;95.20;;;;;;6307312;22;20006;-76
2023/09/17 06:31:45;;;;;;;5.93;5.05;;;20.10;95.20;;;;;;6307720;22;19999;-75
2023/09/17 06:34:11;;;;;;;10.57;5.88;;;20.10;95.50;;;;;;6307381;22;19995;-74
2023/09/17 06:36:38;;;;;;;8.50;5.95;;;20.20;95.30;;;;;;6307491;22;20098;-75
2023/09/17 06:39:05;;;;;;;10.40;6.03;;;20.20;95.30;;;;;;6307062;22;20370;-75
2023/09/17 06:41:32;;;;;;;7.38;5.15;;;20.20;95.20;;;;;;6307465;22;20006;-75
2023/09/17 06:43:57;;;;;;;6.63;5.53;;;20.30;95.20;;;;;;6307264;22;20318;-76
2023/09/17 06:46:24;;;;;;;7.45;5.25;;;20.30;95.10;;;;;;6307083;22;20007;-77
2023/09/17 06:48:50;;;;;;;6.70;5.20;;;20.40;95.20;;;;;;6307301;22;20002;-75
2023/09/17 06:51:16;;;;;;;7.50;6.05;;;20.40;95.20;;;;;;6307134;22;20380;-75
2023/09/17 06:53:42;;;;;;;7.35;5.20;;;20.50;95.20;;;;;;6306977;22;19995;-75
2023/09/17 06:56:08;;;;;;;10.32;5.53;;;20.50;95.20;;;;;;6306744;22;20007;-75
2023/09/17 06:58:35;;;;;;;6.72;5.40;;;20.50;95.20;;;;;;6306562;22;20162;-74
2023/09/17 07:01:00;;;;;;;8.35;5.57;;;20.50;95.10;;;;;;6306786;22;20551;-75
2023/09/17 07:03:26;;;;;;;7.82;5.97;;;20.60;95.10;;;;;;6307363;22;20000;-75
2023/09/17 07:05:52;;;;;;;7.53;5.90;;;20.60;95.00;;;;;;6279772;22;20014;-75
2023/09/17 07:08:18;;;;;;;10.15;6.18;;;20.60;94.90;;;;;;6306761;22;20462;-76
2023/09/17 07:10:44;;;;;;;7.93;6.43;;;20.70;94.80;;;;;;6278735;22;20302;-75
2023/09/17 07:13:10;;;;;;;9.20;6.90;;;20.70;94.80;;;;;;6306299;22;20329;-75
2023/09/17 07:15:36;;;;;;;8.00;7.20;;;20.80;94.80;;;;;;6306168;22;20013;-75
2023/09/17 07:18:02;;;;;;;8.55;6.18;;;20.90;94.80;;;;;;6305504;22;20090;-75
2023/09/17 07:20:27;;;;;;;6.45;5.85;;;20.90;94.90;;;;;;6305517;22;19999;-75
2023/09/17 07:22:53;;;;;;;7.70;6.65;;;21.00;94.70;;;;;;6306015;22;20025;-75
2023/09/17 07:25:19;;;;;;;6.80;5.72;;;21.00;94.60;;;;;;6306023;22;20021;-75
2023/09/17 07:27:44;;;;;;;7.93;5.90;;;21.10;94.50;;;;;;6306384;22;20008;-75
2023/09/17 07:30:11;;;;;;;6.05;5.15;;;21.10;94.30;;;;;;6307467;22;20308;-75
2023/09/17 07:32:37;;;;;;;5.63;4.63;;;21.10;94.30;;;;;;6307458;22;20025;-76
2023/09/17 07:35:03;;;;;;;7.68;5.30;;;21.20;94.30;;;;;;6307401;22;20027;-75
2023/09/17 07:37:29;;;;;;;9.02;4.65;;;21.20;94.30;;;;;;6306921;22;20341;-75
2023/09/17 07:40:04;;;;;;;5.68;4.78;;;21.20;94.40;;;;;;6307324;22;20001;-76
2023/09/17 07:42:30;;;;;;;6.53;4.88;;;21.30;94.40;;;;;;6307446;22;20507;-75
2023/09/17 07:44:56;;;;;;;6.03;5.25;;;21.30;94.30;;;;;;6307377;22;20003;-75
2023/09/17 07:47:22;;;;;;;5.47;4.97;;;21.30;94.20;;;;;;6307269;22;20003;-75
2023/09/17 07:49:47;;;;;;;5.57;5.05;;;21.30;94.20;;;;;;6307016;22;20071;-75
2023/09/17 07:52:13;;;;;;;5.88;5.28;;;21.30;94.20;;;;;;6307159;22;19999;-75
2023/09/17 07:54:40;;;;;;;5.97;4.82;;;21.30;94.30;;;;;;6307096;22;20018;-75
2023/09/17 07:57:07;;;;;;;8.77;4.55;;;21.30;94.20;;;;;;6307624;22;20116;-75
2023/09/17 07:59:33;;;;;;;6.72;4.70;;;21.30;94.20;;;;;;6307007;22;20003;-76
2023/09/17 08:01:59;;;;;;;6.38;4.72;;;21.40;94.30;;;;;;6307474;22;20054;-75
2023/09/17 08:04:25;;;;;;;5.88;5.30;;;21.40;94.20;;;;;;6279901;22;20060;-75
2023/09/17 08:06:51;;;;;;;8.10;4.70;;;21.40;94.10;;;;;;6307298;22;20078;-75
2023/09/17 08:09:17;;;;;;;5.70;4.05;;;21.40;94.00;;;;;;6307028;22;20026;-75
2023/09/17 08:11:43;;;;;;;5.90;4.70;;;21.50;94.00;;;;;;6307196;22;20015;-75
2023/09/17 08:14:10;;;;;;;7.22;4.72;;;21.50;94.10;;;;;;6307103;22;20055;-75
2023/09/17 08:16:36;;;;;;;6.72;4.38;;;21.50;94.10;;;;;;6307131;22;20083;-75
2023/09/17 08:19:02;;;;;;;5.88;4.30;;;21.50;94.20;;;;;;6307195;22;20000;-75
2023/09/17 08:21:28;;;;;;;7.78;4.40;;;21.50;94.50;;;;;;6307042;22;20003;-76
2023/09/17 08:23:55;;;;;;;5.53;4.70;;;21.50;94.30;;;;;;6307052;22;20007;-75
2023/09/17 08:26:22;;;;;;;7.80;4.57;;;21.50;94.30;;;;;;6307107;22;20007;-74
2023/09/17 08:28:49;;;;;;;9.25;5.35;;;21.50;94.30;;;;;;6307629;22;20002;-75
2023/09/17 08:31:16;;;;;;;6.47;4.80;;;21.50;94.30;;;;;;6309392;22;20056;-75
2023/09/17 08:33:45;;;;;;;6.50;4.47;;;21.60;94.20;;;;;;6309266;22;20010;-75
2023/09/17 08:36:11;;;;;;;7.22;4.65;;;21.60;94.30;;;;;;6308607;22;20121;-75
2023/09/17 08:38:37;;;;;;;8.25;4.82;;;21.50;94.40;;;;;;6309134;22;20471;-75
2023/09/17 08:41:06;;;;;;;5.53;4.47;;;21.60;94.40;;;;;;6309134;22;20003;-75
2023/09/17 08:43:32;;;;;;;5.10;4.60;;;21.60;94.50;;;;;;6309329;22;20392;-75
2023/09/17 08:46:01;;;;;;;5.63;5.00;;;21.60;94.40;;;;;;6308771;22;20003;-75
2023/09/17 08:48:26;;;;;;;7.80;5.13;;;21.60;94.50;;;;;;6309179;22;19999;-75
2023/09/17 08:50:54;;;;;;;5.30;4.70;;;21.60;94.40;;;;;;6281699;22;20011;-75
2023/09/17 08:53:27;;;;;;;5.75;4.95;;;21.70;94.50;;;;;;6309044;22;20044;-75
2023/09/17 08:55:57;;;;;;;5.00;4.50;;;21.60;94.40;;;;;;6308911;22;20366;-75
2023/09/17 08:58:28;;;;;;;6.68;5.03;;;21.60;94.50;;;;;;6309064;22;20321;-75
2023/09/17 09:00:58;;;;;;;8.80;5.07;;;21.70;94.70;;;;;;6309044;22;20003;-74
2023/09/17 09:03:27;;;;;;;6.25;4.72;;;21.70;94.70;;;;;;6308865;22;20011;-75
2023/09/17 09:05:55;;;;;;;4.90;4.40;;;21.70;94.70;;;;;;6308555;22;20002;-75
2023/09/17 09:08:22;;;;;;;4.85;4.40;;;21.70;94.80;;;;;;6308757;22;20003;-75
2023/09/17 09:10:48;;;;;;;6.40;4.78;;;21.70;94.80;;;;;;6308739;22;20039;-75
2023/09/17 09:13:14;;;;;;;7.53;4.88;;;21.70;94.80;;;;;;6308661;22;20018;-75
2023/09/17 09:15:40;;;;;;;5.10;4.63;;;21.70;94.70;;;;;;6308741;22;20041;-75
2023/09/17 09:18:08;;;;;;;6.80;4.80;;;21.70;94.70;;;;;;6308447;22;20011;-76
2023/09/17 09:20:36;;;;;;;9.13;4.10;;;21.80;94.80;;;;;;6308837;22;19995;-75
2023/09/17 09:23:02;;;;;;;8.32;4.60;;;21.80;94.90;;;;;;6308458;22;20010;-74
2023/09/17 09:25:28;;;;;;;5.95;5.35;;;21.80;94.90;;;;;;6309001;22;20007;-75
2023/09/17 09:28:03;;;;;;;5.32;4.53;;;21.80;94.90;;;;;;6308677;22;19999;-75
2023/09/17 09:30:29;;;;;;;7.63;4.40;;;21.90;94.90;;;;;;6308480;22;20003;-75
2023/09/17 09:32:56;;;;;;;5.55;4.10;;;21.90;94.90;;;;;;6308681;22;20377;-75
2023/09/17 09:35:22;;;;;;;5.28;4.78;;;21.90;94.90;;;;;;6308458;22;20322;-75
2023/09/17 09:37:49;;;;;;;6.38;4.25;;;21.90;94.80;;;;;;6308423;22;20007;-76
2023/09/17 09:40:15;;;;;;;5.85;4.20;;;21.90;94.70;;;;;;6308130;22;20055;-75
2023/09/17 09:42:46;;;;;;;5.55;4.65;;;22.00;94.70;;;;;;6308430;22;20024;-75
2023/09/17 09:45:16;;;;;;;6.53;4.80;;;22.00;94.70;;;;;;6308751;22;20480;-75
2023/09/17 09:47:49;;;;;;;7.55;4.88;;;22.00;94.60;;;;;;6308596;22;20002;-75
2023/09/17 09:50:23;;;;;;;7.13;6.35;;;22.10;94.40;;;;;;6308512;22;20053;-75
2023/09/17 09:52:49;;;;;;;8.13;5.93;;;22.10;94.40;;;;;;6280973;22;20430;-75
2023/09/17 09:55:14;;;;;;;7.47;5.80;;;22.20;94.40;;;;;;6308478;22;20034;-75
2023/09/17 09:57:42;;;;;;;11.13;6.85;;;22.20;94.60;;;;;;6308680;22;20072;-74
2023/09/17 10:00:18;;;;;;;9.32;6.40;;;22.20;94.60;;;;;;6308468;22;20318;-75
2023/09/17 10:02:45;;;;;;;6.85;4.95;;;22.20;94.40;;;;;;6308038;22;20087;-75
2023/09/17 10:05:12;;;;;;;5.13;4.60;;;22.30;94.60;;;;;;6308440;22;19995;-75
2023/09/17 10:07:39;;;;;;;7.55;5.10;;;22.30;94.70;;;;;;6308466;22;20632;-75
2023/09/17 10:10:05;;;;;;;6.78;4.47;;;22.30;94.70;;;;;;6307421;22;19999;-76
2023/09/17 10:12:31;;;;;;;6.85;4.82;;;22.40;94.80;;;;;;6307499;22;20023;-75
2023/09/17 10:14:57;;;;;;;6.80;4.55;;;22.40;94.80;;;;;;6307193;22;19996;-75
2023/09/17 10:17:23;;;;;;;4.65;4.18;;;22.50;94.70;;;;;;6307751;22;20018;-76
2023/09/17 10:19:50;;;;;;;4.90;4.50;;;22.50;94.80;;;;;;6307997;22;20105;-76
2023/09/17 10:22:18;;;;;;;6.20;4.38;;;22.60;94.70;;;;;;6307813;22;20003;-76
2023/09/17 10:24:44;;;;;;;10.77;4.38;;;22.60;94.50;;;;;;6280566;22;20078;-75
2023/09/17 10:27:15;;;;;;;9.05;4.68;;;22.60;94.60;;;;;;6308075;22;20006;-75
2023/09/17 10:29:43;;;;;;;7.13;4.57;;;22.60;94.60;;;;;;6308187;22;19999;-76
2023/09/17 10:32:10;;;;;;;81.32;16.13;;;22.70;94.50;;;;;;6307972;22;19999;-76
2023/09/17 10:34:35;;;;;;;30.80;9.05;;;22.70;94.30;;;;;;6307992;22;20080;-76
2023/09/17 10:37:03;;;;;;;5.20;3.72;;;22.70;94.40;;;;;;6307883;22;20011;-77
2023/09/17 10:39:31;;;;;;;10.10;4.38;;;22.80;94.00;;;;;;6307545;22;20425;-76
2023/09/17 10:42:00;;;;;;;6.07;4.18;;;22.80;93.70;;;;;;6307854;22;20425;-76
2023/09/17 10:44:28;;;;;;;4.35;3.35;;;22.90;93.60;;;;;;6280383;22;20379;-76
2023/09/17 10:46:56;;;;;;;4.70;3.53;;;23.00;93.30;;;;;;6307738;22;20018;-75
2023/09/17 10:49:22;;;;;;;4.75;3.40;;;23.00;92.90;;;;;;6307679;22;20033;-76
2023/09/17 10:51:51;;;;;;;4.82;3.95;;;23.00;92.50;;;;;;6307543;22;19999;-75
2023/09/17 10:54:16;;;;;;;5.05;2.95;;;23.00;92.00;;;;;;6307506;22;20329;-76
2023/09/17 10:56:45;;;;;;;3.85;3.50;;;23.10;91.70;;;;;;6280031;22;20012;-75
2023/09/17 10:59:13;;;;;;;3.20;2.90;;;23.10;91.40;;;;;;6303551;22;20078;-75
2023/09/17 11:01:41;;;;;;;4.22;3.42;;;23.20;91.60;;;;;;6304021;22;20061;-76
2023/09/17 11:04:19;;;;;;;5.25;3.50;;;23.20;91.50;;;;;;6305496;22;20475;-77
2023/09/17 11:06:47;;;;;;;5.00;3.13;;;23.20;91.30;;;;;;6306167;22;20372;-76
2023/09/17 11:09:14;;;;;;;7.13;3.55;;;23.30;90.80;;;;;;6276673;22;20011;-77
2023/09/17 11:11:40;;;;;;;8.52;3.50;;;23.30;90.50;;;;;;6304616;22;20394;-76
2023/09/17 11:14:08;;;;;;;5.57;3.40;;;23.40;90.00;;;;;;6280027;22;20333;-76
2023/09/17 11:16:35;;;;;;;4.72;3.70;;;23.40;90.10;;;;;;6307707;22;20022;-76
2023/09/17 11:19:06;;;;;;;5.03;4.00;;;23.40;90.40;;;;;;6307578;22;20098;-77
2023/09/17 11:22:01;;;;;;;4.90;3.92;;;23.50;90.90;;;;;;6307265;22;20009;-76
2023/09/17 11:24:28;;;;;;;3.90;3.47;;;23.50;90.80;;;;;;6302441;22;20029;-77
2023/09/17 11:26:56;;;;;;;4.05;3.10;;;23.50;90.70;;;;;;6304101;22;20003;-77
2023/09/17 11:29:41;;;;;;;8.10;3.88;;;23.50;90.70;;;;;;6305506;22;19999;-76
2023/09/17 11:32:07;;;;;;;4.97;3.88;;;23.50;90.60;;;;;;6307200;22;20078;-77
2023/09/17 11:34:38;;;;;;;6.53;3.50;;;23.50;90.60;;;;;;6307255;22;20007;-76
2023/09/17 11:37:06;;;;;;;5.13;3.47;;;23.50;90.40;;;;;;6307135;22;20082;-77
2023/09/17 11:39:35;;;;;;;6.45;4.15;;;23.60;90.40;;;;;;6306009;22;20245;-77
2023/09/17 11:42:05;;;;;;;7.32;3.92;;;23.60;90.60;;;;;;6306940;22;20329;-77
2023/09/17 11:44:34;;;;;;;7.10;4.15;;;23.60;90.70;;;;;;6307195;22;20097;-77
2023/09/17 11:47:00;;;;;;;4.35;3.95;;;23.60;90.80;;;;;;6279574;22;20000;-76
2023/09/17 11:49:28;;;;;;;4.57;3.95;;;23.60;90.70;;;;;;6307464;22;20415;-76
2023/09/17 11:51:57;;;;;;;8.15;4.57;;;23.60;90.70;;;;;;6306933;22;20000;-77
2023/09/17 11:54:40;;;;;;;6.80;4.97;;;23.70;90.90;;;;;;6306282;22;20060;-77
2023/09/17 11:57:07;;;;;;;7.15;4.80;;;23.70;91.30;;;;;;6306649;22;20102;-77
2023/09/17 11:59:38;;;;;;;7.57;4.72;;;23.80;91.10;;;;;;6307172;22;19999;-76
2023/09/17 12:02:08;;;;;;;7.85;4.50;;;23.80;91.00;;;;;;6306957;22;20048;-77
2023/09/17 12:04:38;;;;;;;7.07;4.47;;;23.90;91.10;;;;;;6306466;22;20382;-77
2023/09/17 12:07:12;;;;;;;6.68;4.45;;;23.90;91.00;;;;;;6306939;22;20486;-75
2023/09/17 12:10:00;;;;;;;8.20;5.07;;;24.00;91.20;;;;;;6307043;22;20007;-76
2023/09/17 12:12:31;;;;;;;5.47;4.22;;;24.00;91.10;;;;;;6306635;22;20011;-76
2023/09/17 12:14:58;;;;;;;7.97;5.07;;;24.00;91.10;;;;;;6306897;22;20045;-76
2023/09/17 12:17:24;;;;;;;10.65;4.60;;;24.00;91.20;;;;;;6306603;22;20053;-76
2023/09/17 12:19:59;;;;;;;9.25;5.00;;;24.00;91.10;;;;;;6306983;22;20000;-76
2023/09/17 12:22:25;;;;;;;6.25;4.40;;;24.00;91.10;;;;;;6306497;22;20004;-76
2023/09/17 12:25:03;;;;;;;5.22;4.68;;;24.00;91.20;;;;;;6306746;22;20076;-76
2023/09/17 12:29:58;;;;;;;7.03;4.70;;;24.10;91.10;;;;;;6307232;22;20014;-76
2023/09/17 12:32:29;;;;;;;6.82;4.80;;;24.10;91.20;;;;;;6307063;22;20003;-76
2023/09/17 12:34:57;;;;;;;6.78;4.80;;;24.10;91.30;;;;;;6305929;22;19999;-76
2023/09/17 12:37:23;;;;;;;7.60;4.65;;;24.20;91.40;;;;;;6306519;22;20018;-76
2023/09/17 12:39:49;;;;;;;7.53;4.57;;;24.30;91.30;;;;;;6306948;22;20005;-74
2023/09/17 12:42:16;;;;;;;6.65;5.45;;;24.30;91.30;;;;;;6306598;22;20003;-74
2023/09/17 12:44:42;;;;;;;10.27;5.43;;;24.30;91.20;;;;;;6306021;22;20317;-74
2023/09/17 12:47:08;;;;;;;6.28;4.95;;;24.30;91.00;;;;;;6305774;22;20070;-74
2023/09/17 12:49:34;;;;;;;7.00;5.05;;;24.30;91.10;;;;;;6306361;22;20082;-75